sensor_id;sensor_type;location;lat;lon;timestamp;P1;durP1;ratioP1;P2;durP2;ratioP2
85797;SDS011;76244;53.434;14.484;2024-02-16T00:00:12;9.10;;;4.20;;
85797;SDS011;76244;53.434;14.484;2024-02-16T00:03:06;7.60;;;4.20;;
85797;SDS011;76244;53.434;14.484;2024-02-16T00:05:39;6.50;;;3.80;;
85797;SDS011;76244;53.434;14.484;2024-02-16T00:08:12;8.10;;;4.20;;
85797;SDS011;76244;53.434;14.484;2024-02-16T00:10:44;7.70;;;4.20;;
85797;SDS011;76244;53.434;14.484;2024-02-16T00:13:17;8.00;;;4.80;;
85797;SDS011;76244;53.434;14.484;2024-02-16T00:15:50;8.60;;;4.50;;
85797;SDS011;76244;53.434;14.484;2024-02-16T00:18:22;6.90;;;4.30;;
85797;SDS011;76244;53.434;14.484;2024-02-16T00:20:55;7.20;;;4.50;;
85797;SDS011;76244;53.434;14.484;2024-02-16T00:23:27;8.30;;;4.10;;
85797;SDS011;76244;53.434;14.484;2024-02-16T00:26:01;6.90;;;3.60;;
85797;SDS011;76244;53.434;14.484;2024-02-16T00:28:36;6.90;;;3.90;;
85797;SDS011;76244;53.434;14.484;2024-02-16T00:31:08;7.70;;;4.40;;
85797;SDS011;76244;53.434;14.484;2024-02-16T00:33:41;6.90;;;3.80;;
85797;SDS011;76244;53.434;14.484;2024-02-16T00:36:13;8.50;;;4.40;;
85797;SDS011;76244;53.434;14.484;2024-02-16T00:38:46;6.80;;;4.10;;
85797;SDS011;76244;53.434;14.484;2024-02-16T00:41:19;7.40;;;4.10;;
85797;SDS011;76244;53.434;14.484;2024-02-16T00:43:53;7.70;;;4.10;;
85797;SDS011;76244;53.434;14.484;2024-02-16T00:46:26;8.20;;;4.10;;
85797;SDS011;76244;53.434;14.484;2024-02-16T00:48:58;7.30;;;4.00;;
85797;SDS011;76244;53.434;14.484;2024-02-16T00:51:33;7.30;;;4.50;;
85797;SDS011;76244;53.434;14.484;2024-02-16T00:54:05;6.70;;;4.10;;
85797;SDS011;76244;53.434;14.484;2024-02-16T00:56:38;7.50;;;4.20;;
85797;SDS011;76244;53.434;14.484;2024-02-16T00:59:10;7.20;;;3.70;;
85797;SDS011;76244;53.434;14.484;2024-02-16T01:01:43;5.80;;;3.70;;
85797;SDS011;76244;53.434;14.484;2024-02-16T01:04:15;6.30;;;3.80;;
85797;SDS011;76244;53.434;14.484;2024-02-16T01:06:48;7.60;;;4.30;;
85797;SDS011;76244;53.434;14.484;2024-02-16T01:09:21;8.30;;;4.30;;
85797;SDS011;76244;53.434;14.484;2024-02-16T01:11:53;7.70;;;4.20;;
85797;SDS011;76244;53.434;14.484;2024-02-16T01:14:26;7.50;;;4.40;;
85797;SDS011;76244;53.434;14.484;2024-02-16T01:16:58;8.90;;;4.10;;
85797;SDS011;76244;53.434;14.484;2024-02-16T01:19:31;8.10;;;4.40;;
85797;SDS011;76244;53.434;14.484;2024-02-16T01:22:04;9.20;;;4.50;;
85797;SDS011;76244;53.434;14.484;2024-02-16T01:24:37;9.80;;;4.10;;
85797;SDS011;76244;53.434;14.484;2024-02-16T01:27:09;10.20;;;4.80;;
85797;SDS011;76244;53.434;14.484;2024-02-16T01:29:42;8.90;;;4.60;;
85797;SDS011;76244;53.434;14.484;2024-02-16T01:32:14;8.00;;;4.20;;
85797;SDS011;76244;53.434;14.484;2024-02-16T01:34:47;9.60;;;4.90;;
85797;SDS011;76244;53.434;14.484;2024-02-16T01:37:20;8.30;;;4.20;;
85797;SDS011;76244;53.434;14.484;2024-02-16T01:39:53;8.60;;;4.70;;
85797;SDS011;76244;53.434;14.484;2024-02-16T01:42:25;8.40;;;4.40;;
85797;SDS011;76244;53.434;14.484;2024-02-16T01:44:58;9.70;;;4.80;;
85797;SDS011;76244;53.434;14.484;2024-02-16T01:47:31;9.70;;;4.60;;
85797;SDS011;76244;53.434;14.484;2024-02-16T01:50:04;7.20;;;4.50;;
85797;SDS011;76244;53.434;14.484;2024-02-16T01:52:37;9.00;;;5.10;;
85797;SDS011;76244;53.434;14.484;2024-02-16T01:55:10;7.00;;;4.20;;
85797;SDS011;76244;53.434;14.484;2024-02-16T01:57:44;8.20;;;4.70;;
85797;SDS011;76244;53.434;14.484;2024-02-16T02:00:18;9.60;;;5.30;;
85797;SDS011;76244;53.434;14.484;2024-02-16T02:02:51;7.90;;;4.50;;
85797;SDS011;76244;53.434;14.484;2024-02-16T02:05:23;9.40;;;5.10;;
85797;SDS011;76244;53.434;14.484;2024-02-16T02:07:56;9.90;;;4.70;;
85797;SDS011;76244;53.434;14.484;2024-02-16T02:10:29;8.00;;;4.70;;
85797;SDS011;76244;53.434;14.484;2024-02-16T02:13:02;8.20;;;4.50;;
85797;SDS011;76244;53.434;14.484;2024-02-16T02:15:34;9.20;;;4.80;;
85797;SDS011;76244;53.434;14.484;2024-02-16T02:18:08;10.10;;;5.10;;
85797;SDS011;76244;53.434;14.484;2024-02-16T02:20:41;9.50;;;5.40;;
85797;SDS011;76244;53.434;14.484;2024-02-16T02:23:14;8.70;;;5.70;;
85797;SDS011;76244;53.434;14.484;2024-02-16T02:25:47;8.50;;;5.90;;
85797;SDS011;76244;53.434;14.484;2024-02-16T02:28:20;9.80;;;5.60;;
85797;SDS011;76244;53.434;14.484;2024-02-16T02:30:54;10.70;;;5.40;;
85797;SDS011;76244;53.434;14.484;2024-02-16T02:33:27;9.90;;;4.90;;
85797;SDS011;76244;53.434;14.484;2024-02-16T02:36:00;9.30;;;4.50;;
85797;SDS011;76244;53.434;14.484;2024-02-16T02:38:33;9.70;;;5.10;;
85797;SDS011;76244;53.434;14.484;2024-02-16T02:41:06;10.00;;;5.50;;
85797;SDS011;76244;53.434;14.484;2024-02-16T02:43:38;10.60;;;6.10;;
85797;SDS011;76244;53.434;14.484;2024-02-16T02:46:15;9.20;;;6.10;;
85797;SDS011;76244;53.434;14.484;2024-02-16T02:48:47;10.20;;;6.00;;
85797;SDS011;76244;53.434;14.484;2024-02-16T02:51:21;10.00;;;5.90;;
85797;SDS011;76244;53.434;14.484;2024-02-16T02:53:54;11.80;;;6.60;;
85797;SDS011;76244;53.434;14.484;2024-02-16T02:56:26;10.30;;;6.00;;
85797;SDS011;76244;53.434;14.484;2024-02-16T02:58:59;11.00;;;6.10;;
85797;SDS011;76244;53.434;14.484;2024-02-16T03:01:31;10.50;;;6.30;;
85797;SDS011;76244;53.434;14.484;2024-02-16T03:04:04;11.90;;;6.60;;
85797;SDS011;76244;53.434;14.484;2024-02-16T03:06:37;11.90;;;6.50;;
85797;SDS011;76244;53.434;14.484;2024-02-16T03:09:10;10.20;;;6.20;;
85797;SDS011;76244;53.434;14.484;2024-02-16T03:11:43;10.40;;;6.60;;
85797;SDS011;76244;53.434;14.484;2024-02-16T03:14:16;11.50;;;6.10;;
85797;SDS011;76244;53.434;14.484;2024-02-16T03:16:48;12.40;;;6.30;;
85797;SDS011;76244;53.434;14.484;2024-02-16T03:19:21;11.70;;;6.80;;
85797;SDS011;76244;53.434;14.484;2024-02-16T03:21:54;15.80;;;8.30;;
85797;SDS011;76244;53.434;14.484;2024-02-16T03:24:26;15.00;;;7.00;;
85797;SDS011;76244;53.434;14.484;2024-02-16T03:26:59;12.50;;;6.70;;
85797;SDS011;76244;53.434;14.484;2024-02-16T03:29:31;10.80;;;6.60;;
85797;SDS011;76244;53.434;14.484;2024-02-16T03:32:04;12.60;;;7.30;;
85797;SDS011;76244;53.434;14.484;2024-02-16T03:34:37;13.00;;;7.40;;
85797;SDS011;76244;53.434;14.484;2024-02-16T03:37:10;10.70;;;6.20;;
85797;SDS011;76244;53.434;14.484;2024-02-16T03:39:43;12.80;;;8.20;;
85797;SDS011;76244;53.434;14.484;2024-02-16T03:42:15;12.60;;;7.90;;
85797;SDS011;76244;53.434;14.484;2024-02-16T03:44:49;11.30;;;6.60;;
85797;SDS011;76244;53.434;14.484;2024-02-16T03:47:22;11.70;;;7.50;;
85797;SDS011;76244;53.434;14.484;2024-02-16T03:49:59;12.40;;;7.20;;
85797;SDS011;76244;53.434;14.484;2024-02-16T03:52:32;11.00;;;6.70;;
85797;SDS011;76244;53.434;14.484;2024-02-16T03:55:06;12.10;;;6.80;;
85797;SDS011;76244;53.434;14.484;2024-02-16T03:57:40;10.40;;;6.10;;
85797;SDS011;76244;53.434;14.484;2024-02-16T04:00:13;13.40;;;6.70;;
85797;SDS011;76244;53.434;14.484;2024-02-16T04:02:47;11.80;;;6.50;;
85797;SDS011;76244;53.434;14.484;2024-02-16T04:05:20;11.60;;;7.20;;
85797;SDS011;76244;53.434;14.484;2024-02-16T04:07:53;10.10;;;6.60;;
85797;SDS011;76244;53.434;14.484;2024-02-16T04:10:25;11.90;;;6.80;;
85797;SDS011;76244;53.434;14.484;2024-02-16T04:12:57;10.60;;;6.90;;
85797;SDS011;76244;53.434;14.484;2024-02-16T04:15:30;13.40;;;6.70;;
85797;SDS011;76244;53.434;14.484;2024-02-16T04:18:03;11.30;;;6.60;;
85797;SDS011;76244;53.434;14.484;2024-02-16T04:20:36;10.30;;;6.50;;
85797;SDS011;76244;53.434;14.484;2024-02-16T04:23:10;12.30;;;8.10;;
85797;SDS011;76244;53.434;14.484;2024-02-16T04:25:43;13.50;;;7.80;;
85797;SDS011;76244;53.434;14.484;2024-02-16T04:28:15;11.20;;;7.50;;
85797;SDS011;76244;53.434;14.484;2024-02-16T04:30:48;12.50;;;8.10;;
85797;SDS011;76244;53.434;14.484;2024-02-16T04:33:20;16.80;;;8.30;;
85797;SDS011;76244;53.434;14.484;2024-02-16T04:35:53;11.10;;;7.50;;
85797;SDS011;76244;53.434;14.484;2024-02-16T04:38:26;10.50;;;6.90;;
85797;SDS011;76244;53.434;14.484;2024-02-16T04:40:58;12.80;;;8.10;;
85797;SDS011;76244;53.434;14.484;2024-02-16T04:43:30;18.20;;;8.70;;
85797;SDS011;76244;53.434;14.484;2024-02-16T04:46:03;14.40;;;8.70;;
85797;SDS011;76244;53.434;14.484;2024-02-16T04:48:35;14.40;;;8.60;;
85797;SDS011;76244;53.434;14.484;2024-02-16T04:51:08;14.00;;;8.70;;
85797;SDS011;76244;53.434;14.484;2024-02-16T04:53:40;14.60;;;8.60;;
85797;SDS011;76244;53.434;14.484;2024-02-16T04:56:12;12.90;;;7.30;;
85797;SDS011;76244;53.434;14.484;2024-02-16T04:58:45;14.60;;;8.80;;
85797;SDS011;76244;53.434;14.484;2024-02-16T05:01:18;13.80;;;9.00;;
85797;SDS011;76244;53.434;14.484;2024-02-16T05:03:50;14.10;;;7.80;;
85797;SDS011;76244;53.434;14.484;2024-02-16T05:06:24;17.00;;;9.50;;
85797;SDS011;76244;53.434;14.484;2024-02-16T05:08:57;17.90;;;9.30;;
85797;SDS011;76244;53.434;14.484;2024-02-16T05:11:30;15.70;;;9.10;;
85797;SDS011;76244;53.434;14.484;2024-02-16T05:14:04;16.40;;;9.10;;
85797;SDS011;76244;53.434;14.484;2024-02-16T05:16:36;12.90;;;8.10;;
85797;SDS011;76244;53.434;14.484;2024-02-16T05:19:13;14.80;;;9.30;;
85797;SDS011;76244;53.434;14.484;2024-02-16T05:21:45;15.30;;;9.10;;
85797;SDS011;76244;53.434;14.484;2024-02-16T05:24:18;15.60;;;9.20;;
85797;SDS011;76244;53.434;14.484;2024-02-16T05:26:52;15.00;;;10.00;;
85797;SDS011;76244;53.434;14.484;2024-02-16T05:29:25;15.40;;;10.20;;
85797;SDS011;76244;53.434;14.484;2024-02-16T05:31:58;17.10;;;9.10;;
85797;SDS011;76244;53.434;14.484;2024-02-16T05:34:31;14.40;;;9.50;;
85797;SDS011;76244;53.434;14.484;2024-02-16T05:37:19;13.00;;;8.50;;
85797;SDS011;76244;53.434;14.484;2024-02-16T05:39:51;14.50;;;8.80;;
85797;SDS011;76244;53.434;14.484;2024-02-16T05:42:26;17.00;;;9.40;;
85797;SDS011;76244;53.434;14.484;2024-02-16T05:44:59;17.10;;;10.10;;
85797;SDS011;76244;53.434;14.484;2024-02-16T05:47:31;18.30;;;10.20;;
85797;SDS011;76244;53.434;14.484;2024-02-16T05:50:05;18.00;;;9.10;;
85797;SDS011;76244;53.434;14.484;2024-02-16T05:52:38;15.00;;;9.50;;
85797;SDS011;76244;53.434;14.484;2024-02-16T05:55:11;14.00;;;9.40;;
85797;SDS011;76244;53.434;14.484;2024-02-16T05:57:44;17.70;;;11.30;;
85797;SDS011;76244;53.434;14.484;2024-02-16T06:00:17;14.90;;;9.30;;
85797;SDS011;76244;53.434;14.484;2024-02-16T06:02:51;14.20;;;8.60;;
85797;SDS011;76244;53.434;14.484;2024-02-16T06:05:25;16.90;;;9.40;;
85797;SDS011;76244;53.434;14.484;2024-02-16T06:07:58;15.40;;;9.20;;
85797;SDS011;76244;53.434;14.484;2024-02-16T06:10:30;15.00;;;9.30;;
85797;SDS011;76244;53.434;14.484;2024-02-16T06:13:02;18.00;;;9.90;;
85797;SDS011;76244;53.434;14.484;2024-02-16T06:15:36;15.60;;;9.10;;
85797;SDS011;76244;53.434;14.484;2024-02-16T06:18:09;15.50;;;9.30;;
85797;SDS011;76244;53.434;14.484;2024-02-16T06:20:42;15.80;;;9.30;;
85797;SDS011;76244;53.434;14.484;2024-02-16T06:23:15;15.80;;;10.00;;
85797;SDS011;76244;53.434;14.484;2024-02-16T06:25:47;15.70;;;9.20;;
85797;SDS011;76244;53.434;14.484;2024-02-16T06:28:20;14.30;;;8.20;;
85797;SDS011;76244;53.434;14.484;2024-02-16T06:30:53;14.90;;;9.00;;
85797;SDS011;76244;53.434;14.484;2024-02-16T06:33:26;18.30;;;9.90;;
85797;SDS011;76244;53.434;14.484;2024-02-16T06:35:58;14.50;;;9.20;;
85797;SDS011;76244;53.434;14.484;2024-02-16T06:38:31;17.10;;;9.80;;
85797;SDS011;76244;53.434;14.484;2024-02-16T06:41:03;14.80;;;9.10;;
85797;SDS011;76244;53.434;14.484;2024-02-16T06:43:37;19.50;;;10.10;;
85797;SDS011;76244;53.434;14.484;2024-02-16T06:46:09;15.40;;;8.90;;
85797;SDS011;76244;53.434;14.484;2024-02-16T06:48:41;17.70;;;8.30;;
85797;SDS011;76244;53.434;14.484;2024-02-16T06:51:14;17.00;;;9.60;;
85797;SDS011;76244;53.434;14.484;2024-02-16T06:53:46;13.70;;;8.40;;
85797;SDS011;76244;53.434;14.484;2024-02-16T06:56:23;14.90;;;9.30;;
85797;SDS011;76244;53.434;14.484;2024-02-16T06:58:59;19.40;;;9.70;;
85797;SDS011;76244;53.434;14.484;2024-02-16T07:01:31;16.10;;;9.80;;
85797;SDS011;76244;53.434;14.484;2024-02-16T07:04:04;17.30;;;9.60;;
85797;SDS011;76244;53.434;14.484;2024-02-16T07:06:42;16.00;;;9.00;;
85797;SDS011;76244;53.434;14.484;2024-02-16T07:09:17;28.10;;;9.70;;
85797;SDS011;76244;53.434;14.484;2024-02-16T07:11:51;14.20;;;9.20;;
85797;SDS011;76244;53.434;14.484;2024-02-16T07:14:24;15.00;;;9.20;;
85797;SDS011;76244;53.434;14.484;2024-02-16T07:16:56;13.60;;;9.10;;
85797;SDS011;76244;53.434;14.484;2024-02-16T07:19:29;19.30;;;9.50;;
85797;SDS011;76244;53.434;14.484;2024-02-16T07:22:01;17.40;;;10.20;;
85797;SDS011;76244;53.434;14.484;2024-02-16T07:24:36;15.80;;;8.70;;
85797;SDS011;76244;53.434;14.484;2024-02-16T07:27:08;15.40;;;8.60;;
85797;SDS011;76244;53.434;14.484;2024-02-16T07:29:42;15.90;;;8.50;;
85797;SDS011;76244;53.434;14.484;2024-02-16T07:32:16;11.90;;;8.00;;
85797;SDS011;76244;53.434;14.484;2024-02-16T07:34:49;13.80;;;8.10;;
85797;SDS011;76244;53.434;14.484;2024-02-16T07:37:21;15.20;;;8.80;;
85797;SDS011;76244;53.434;14.484;2024-02-16T07:39:54;18.20;;;9.80;;
85797;SDS011;76244;53.434;14.484;2024-02-16T07:42:26;17.40;;;9.30;;
85797;SDS011;76244;53.434;14.484;2024-02-16T07:44:59;15.90;;;9.10;;
85797;SDS011;76244;53.434;14.484;2024-02-16T07:47:34;14.90;;;9.10;;
85797;SDS011;76244;53.434;14.484;2024-02-16T07:50:07;15.40;;;8.80;;
85797;SDS011;76244;53.434;14.484;2024-02-16T07:52:40;14.60;;;8.60;;
85797;SDS011;76244;53.434;14.484;2024-02-16T07:55:14;15.70;;;9.00;;
85797;SDS011;76244;53.434;14.484;2024-02-16T07:57:47;16.10;;;9.40;;
85797;SDS011;76244;53.434;14.484;2024-02-16T08:00:20;15.40;;;9.30;;
85797;SDS011;76244;53.434;14.484;2024-02-16T08:02:53;14.80;;;9.10;;
85797;SDS011;76244;53.434;14.484;2024-02-16T08:05:25;13.00;;;8.50;;
85797;SDS011;76244;53.434;14.484;2024-02-16T08:07:57;14.00;;;8.60;;
85797;SDS011;76244;53.434;14.484;2024-02-16T08:10:30;14.50;;;8.00;;
85797;SDS011;76244;53.434;14.484;2024-02-16T08:13:02;15.00;;;8.70;;
85797;SDS011;76244;53.434;14.484;2024-02-16T08:15:35;14.00;;;7.70;;
85797;SDS011;76244;53.434;14.484;2024-02-16T08:18:08;11.80;;;7.70;;
85797;SDS011;76244;53.434;14.484;2024-02-16T08:20:41;14.10;;;8.10;;
85797;SDS011;76244;53.434;14.484;2024-02-16T08:23:13;13.30;;;7.80;;
85797;SDS011;76244;53.434;14.484;2024-02-16T08:25:46;13.50;;;8.80;;
85797;SDS011;76244;53.434;14.484;2024-02-16T08:28:18;13.90;;;8.30;;
85797;SDS011;76244;53.434;14.484;2024-02-16T08:30:51;13.80;;;8.40;;
85797;SDS011;76244;53.434;14.484;2024-02-16T08:33:24;13.20;;;7.80;;
85797;SDS011;76244;53.434;14.484;2024-02-16T08:35:56;14.80;;;7.60;;
85797;SDS011;76244;53.434;14.484;2024-02-16T08:38:29;15.60;;;8.50;;
85797;SDS011;76244;53.434;14.484;2024-02-16T08:41:01;13.60;;;7.80;;
85797;SDS011;76244;53.434;14.484;2024-02-16T08:43:34;12.10;;;7.20;;
85797;SDS011;76244;53.434;14.484;2024-02-16T08:46:06;13.10;;;7.30;;
85797;SDS011;76244;53.434;14.484;2024-02-16T08:48:39;16.50;;;7.80;;
85797;SDS011;76244;53.434;14.484;2024-02-16T08:51:11;13.00;;;7.60;;
85797;SDS011;76244;53.434;14.484;2024-02-16T08:53:45;11.40;;;7.50;;
85797;SDS011;76244;53.434;14.484;2024-02-16T08:56:17;12.20;;;7.00;;
85797;SDS011;76244;53.434;14.484;2024-02-16T08:58:52;15.30;;;7.10;;
85797;SDS011;76244;53.434;14.484;2024-02-16T09:01:31;12.90;;;7.70;;
85797;SDS011;76244;53.434;14.484;2024-02-16T09:04:04;11.50;;;6.80;;
85797;SDS011;76244;53.434;14.484;2024-02-16T09:06:37;12.70;;;7.40;;
85797;SDS011;76244;53.434;14.484;2024-02-16T09:09:10;11.10;;;7.20;;
85797;SDS011;76244;53.434;14.484;2024-02-16T09:11:45;11.50;;;7.40;;
85797;SDS011;76244;53.434;14.484;2024-02-16T09:14:17;12.50;;;7.30;;
85797;SDS011;76244;53.434;14.484;2024-02-16T09:16:50;14.20;;;8.20;;
85797;SDS011;76244;53.434;14.484;2024-02-16T09:19:23;12.60;;;6.90;;
85797;SDS011;76244;53.434;14.484;2024-02-16T09:22:04;12.70;;;6.70;;
85797;SDS011;76244;53.434;14.484;2024-02-16T09:24:37;13.80;;;7.40;;
85797;SDS011;76244;53.434;14.484;2024-02-16T09:27:10;11.60;;;7.00;;
85797;SDS011;76244;53.434;14.484;2024-02-16T09:29:42;13.20;;;7.30;;
85797;SDS011;76244;53.434;14.484;2024-02-16T09:32:15;14.30;;;7.20;;
85797;SDS011;76244;53.434;14.484;2024-02-16T09:34:47;12.10;;;6.90;;
85797;SDS011;76244;53.434;14.484;2024-02-16T09:37:21;13.40;;;7.90;;
85797;SDS011;76244;53.434;14.484;2024-02-16T09:39:53;14.30;;;7.80;;
85797;SDS011;76244;53.434;14.484;2024-02-16T09:42:25;11.00;;;6.70;;
85797;SDS011;76244;53.434;14.484;2024-02-16T09:45:01;11.30;;;7.00;;
85797;SDS011;76244;53.434;14.484;2024-02-16T09:47:35;11.60;;;6.90;;
85797;SDS011;76244;53.434;14.484;2024-02-16T09:50:16;11.60;;;7.10;;
85797;SDS011;76244;53.434;14.484;2024-02-16T09:52:48;11.40;;;6.70;;
85797;SDS011;76244;53.434;14.484;2024-02-16T09:55:21;12.00;;;7.10;;
85797;SDS011;76244;53.434;14.484;2024-02-16T09:58:01;11.90;;;6.90;;
85797;SDS011;76244;53.434;14.484;2024-02-16T10:00:35;10.10;;;6.70;;
85797;SDS011;76244;53.434;14.484;2024-02-16T10:03:08;10.00;;;6.70;;
85797;SDS011;76244;53.434;14.484;2024-02-16T10:05:51;10.20;;;6.50;;
85797;SDS011;76244;53.434;14.484;2024-02-16T10:08:34;11.70;;;7.00;;
85797;SDS011;76244;53.434;14.484;2024-02-16T10:11:17;11.30;;;6.40;;
85797;SDS011;76244;53.434;14.484;2024-02-16T10:13:58;11.40;;;5.80;;
85797;SDS011;76244;53.434;14.484;2024-02-16T10:16:32;13.00;;;6.90;;
85797;SDS011;76244;53.434;14.484;2024-02-16T10:19:05;11.30;;;6.10;;
85797;SDS011;76244;53.434;14.484;2024-02-16T10:21:44;10.30;;;5.70;;
85797;SDS011;76244;53.434;14.484;2024-02-16T10:24:21;11.80;;;6.40;;
85797;SDS011;76244;53.434;14.484;2024-02-16T10:26:54;13.20;;;6.40;;
85797;SDS011;76244;53.434;14.484;2024-02-16T10:29:27;10.70;;;6.60;;
85797;SDS011;76244;53.434;14.484;2024-02-16T10:32:01;11.30;;;5.80;;
85797;SDS011;76244;53.434;14.484;2024-02-16T10:34:34;11.00;;;6.10;;
85797;SDS011;76244;53.434;14.484;2024-02-16T10:37:09;11.50;;;5.60;;
85797;SDS011;76244;53.434;14.484;2024-02-16T10:39:42;11.20;;;6.10;;
85797;SDS011;76244;53.434;14.484;2024-02-16T10:42:17;11.30;;;5.60;;
85797;SDS011;76244;53.434;14.484;2024-02-16T10:44:54;10.80;;;6.00;;
85797;SDS011;76244;53.434;14.484;2024-02-16T10:47:28;10.10;;;6.10;;
85797;SDS011;76244;53.434;14.484;2024-02-16T10:50:00;10.60;;;6.10;;
85797;SDS011;76244;53.434;14.484;2024-02-16T10:52:34;11.70;;;5.30;;
85797;SDS011;76244;53.434;14.484;2024-02-16T10:55:09;13.40;;;5.90;;
85797;SDS011;76244;53.434;14.484;2024-02-16T10:57:43;11.80;;;6.20;;
85797;SDS011;76244;53.434;14.484;2024-02-16T11:00:17;12.40;;;5.80;;
85797;SDS011;76244;53.434;14.484;2024-02-16T11:02:52;11.90;;;6.10;;
85797;SDS011;76244;53.434;14.484;2024-02-16T11:05:35;11.60;;;5.60;;
85797;SDS011;76244;53.434;14.484;2024-02-16T11:08:13;11.50;;;6.20;;
85797;SDS011;76244;53.434;14.484;2024-02-16T11:10:58;9.30;;;5.70;;
85797;SDS011;76244;53.434;14.484;2024-02-16T11:13:33;9.00;;;4.10;;
85797;SDS011;76244;53.434;14.484;2024-02-16T11:16:08;8.30;;;4.40;;
85797;SDS011;76244;53.434;14.484;2024-02-16T11:18:43;7.60;;;4.30;;
85797;SDS011;76244;53.434;14.484;2024-02-16T11:21:18;7.50;;;4.60;;
85797;SDS011;76244;53.434;14.484;2024-02-16T11:23:51;8.50;;;4.50;;
85797;SDS011;76244;53.434;14.484;2024-02-16T11:26:23;8.60;;;4.20;;
85797;SDS011;76244;53.434;14.484;2024-02-16T11:28:56;10.30;;;5.10;;
85797;SDS011;76244;53.434;14.484;2024-02-16T11:31:30;7.70;;;4.30;;
85797;SDS011;76244;53.434;14.484;2024-02-16T11:34:02;10.30;;;4.70;;
85797;SDS011;76244;53.434;14.484;2024-02-16T11:36:34;9.10;;;3.70;;
85797;SDS011;76244;53.434;14.484;2024-02-16T11:39:13;9.90;;;4.90;;
85797;SDS011;76244;53.434;14.484;2024-02-16T11:41:46;10.10;;;3.80;;
85797;SDS011;76244;53.434;14.484;2024-02-16T11:44:18;9.10;;;4.30;;
85797;SDS011;76244;53.434;14.484;2024-02-16T11:46:54;8.00;;;4.60;;
85797;SDS011;76244;53.434;14.484;2024-02-16T11:49:27;8.20;;;4.30;;
85797;SDS011;76244;53.434;14.484;2024-02-16T11:52:00;10.50;;;4.70;;
85797;SDS011;76244;53.434;14.484;2024-02-16T11:54:34;8.10;;;4.40;;
85797;SDS011;76244;53.434;14.484;2024-02-16T11:57:07;7.20;;;4.10;;
85797;SDS011;76244;53.434;14.484;2024-02-16T11:59:39;10.40;;;4.00;;
85797;SDS011;76244;53.434;14.484;2024-02-16T12:02:17;9.30;;;4.10;;
85797;SDS011;76244;53.434;14.484;2024-02-16T12:04:58;9.40;;;4.60;;
85797;SDS011;76244;53.434;14.484;2024-02-16T12:07:32;9.80;;;3.70;;
85797;SDS011;76244;53.434;14.484;2024-02-16T12:10:10;8.10;;;4.00;;
85797;SDS011;76244;53.434;14.484;2024-02-16T12:12:43;8.60;;;4.80;;
85797;SDS011;76244;53.434;14.484;2024-02-16T12:15:15;9.60;;;3.90;;
85797;SDS011;76244;53.434;14.484;2024-02-16T12:17:59;8.60;;;4.20;;
85797;SDS011;76244;53.434;14.484;2024-02-16T12:20:32;9.40;;;4.60;;
85797;SDS011;76244;53.434;14.484;2024-02-16T12:23:13;8.20;;;4.00;;
85797;SDS011;76244;53.434;14.484;2024-02-16T12:25:46;10.00;;;4.10;;
85797;SDS011;76244;53.434;14.484;2024-02-16T12:28:18;9.90;;;4.30;;
85797;SDS011;76244;53.434;14.484;2024-02-16T12:30:54;7.20;;;3.80;;
85797;SDS011;76244;53.434;14.484;2024-02-16T12:33:31;9.50;;;4.30;;
85797;SDS011;76244;53.434;14.484;2024-02-16T12:36:04;10.70;;;5.50;;
85797;SDS011;76244;53.434;14.484;2024-02-16T12:38:37;11.40;;;4.40;;
85797;SDS011;76244;53.434;14.484;2024-02-16T12:41:10;8.50;;;3.80;;
85797;SDS011;76244;53.434;14.484;2024-02-16T12:43:43;8.90;;;3.90;;
85797;SDS011;76244;53.434;14.484;2024-02-16T12:46:15;9.00;;;4.00;;
85797;SDS011;76244;53.434;14.484;2024-02-16T12:48:49;9.70;;;4.40;;
85797;SDS011;76244;53.434;14.484;2024-02-16T12:51:23;8.10;;;4.10;;
85797;SDS011;76244;53.434;14.484;2024-02-16T12:53:55;8.90;;;3.70;;
85797;SDS011;76244;53.434;14.484;2024-02-16T12:56:29;7.80;;;4.20;;
85797;SDS011;76244;53.434;14.484;2024-02-16T12:59:01;8.80;;;4.00;;
85797;SDS011;76244;53.434;14.484;2024-02-16T13:01:35;7.00;;;3.60;;
85797;SDS011;76244;53.434;14.484;2024-02-16T13:04:08;7.70;;;4.20;;
85797;SDS011;76244;53.434;14.484;2024-02-16T13:06:40;7.50;;;3.50;;
85797;SDS011;76244;53.434;14.484;2024-02-16T13:09:14;12.10;;;4.10;;
85797;SDS011;76244;53.434;14.484;2024-02-16T13:11:47;8.40;;;3.60;;
85797;SDS011;76244;53.434;14.484;2024-02-16T13:14:24;8.70;;;4.10;;
85797;SDS011;76244;53.434;14.484;2024-02-16T13:16:56;7.60;;;4.50;;
85797;SDS011;76244;53.434;14.484;2024-02-16T13:19:29;7.50;;;3.90;;
85797;SDS011;76244;53.434;14.484;2024-02-16T13:22:02;9.00;;;4.00;;
85797;SDS011;76244;53.434;14.484;2024-02-16T13:24:36;12.80;;;4.90;;
85797;SDS011;76244;53.434;14.484;2024-02-16T13:27:08;8.30;;;4.10;;
85797;SDS011;76244;53.434;14.484;2024-02-16T13:29:41;7.80;;;4.40;;
85797;SDS011;76244;53.434;14.484;2024-02-16T13:32:13;7.60;;;3.90;;
85797;SDS011;76244;53.434;14.484;2024-02-16T13:34:46;9.60;;;4.80;;
85797;SDS011;76244;53.434;14.484;2024-02-16T13:37:18;8.10;;;4.30;;
85797;SDS011;76244;53.434;14.484;2024-02-16T13:39:52;9.40;;;4.70;;
85797;SDS011;76244;53.434;14.484;2024-02-16T13:42:25;7.80;;;4.40;;
85797;SDS011;76244;53.434;14.484;2024-02-16T13:44:58;8.60;;;5.00;;
85797;SDS011;76244;53.434;14.484;2024-02-16T13:47:30;8.60;;;4.20;;
85797;SDS011;76244;53.434;14.484;2024-02-16T13:50:03;10.10;;;4.50;;
85797;SDS011;76244;53.434;14.484;2024-02-16T13:52:37;8.80;;;4.90;;
85797;SDS011;76244;53.434;14.484;2024-02-16T13:55:10;9.90;;;4.60;;
85797;SDS011;76244;53.434;14.484;2024-02-16T13:57:44;8.60;;;4.60;;
85797;SDS011;76244;53.434;14.484;2024-02-16T14:00:17;8.60;;;4.40;;
85797;SDS011;76244;53.434;14.484;2024-02-16T14:02:50;11.90;;;4.70;;
85797;SDS011;76244;53.434;14.484;2024-02-16T14:05:23;10.00;;;5.10;;
85797;SDS011;76244;53.434;14.484;2024-02-16T14:07:56;8.10;;;4.30;;
85797;SDS011;76244;53.434;14.484;2024-02-16T14:10:30;9.20;;;4.80;;
85797;SDS011;76244;53.434;14.484;2024-02-16T14:13:02;8.40;;;4.90;;
85797;SDS011;76244;53.434;14.484;2024-02-16T14:15:35;9.50;;;4.60;;
85797;SDS011;76244;53.434;14.484;2024-02-16T14:18:07;9.60;;;4.40;;
85797;SDS011;76244;53.434;14.484;2024-02-16T14:20:55;8.90;;;4.80;;
85797;SDS011;76244;53.434;14.484;2024-02-16T14:23:28;8.20;;;4.40;;
85797;SDS011;76244;53.434;14.484;2024-02-16T14:26:02;9.50;;;4.90;;
85797;SDS011;76244;53.434;14.484;2024-02-16T14:28:35;11.60;;;4.80;;
85797;SDS011;76244;53.434;14.484;2024-02-16T14:31:07;10.10;;;5.20;;
85797;SDS011;76244;53.434;14.484;2024-02-16T14:33:40;12.50;;;5.90;;
85797;SDS011;76244;53.434;14.484;2024-02-16T14:36:13;10.60;;;6.20;;
85797;SDS011;76244;53.434;14.484;2024-02-16T14:38:47;8.90;;;5.60;;
85797;SDS011;76244;53.434;14.484;2024-02-16T14:41:23;10.90;;;5.60;;
85797;SDS011;76244;53.434;14.484;2024-02-16T14:43:57;10.90;;;5.90;;
85797;SDS011;76244;53.434;14.484;2024-02-16T14:46:30;9.40;;;5.40;;
85797;SDS011;76244;53.434;14.484;2024-02-16T14:49:03;9.90;;;5.50;;
85797;SDS011;76244;53.434;14.484;2024-02-16T14:51:41;9.00;;;5.00;;
85797;SDS011;76244;53.434;14.484;2024-02-16T14:54:15;8.80;;;5.30;;
85797;SDS011;76244;53.434;14.484;2024-02-16T14:56:47;9.10;;;4.80;;
85797;SDS011;76244;53.434;14.484;2024-02-16T14:59:23;9.10;;;4.50;;
85797;SDS011;76244;53.434;14.484;2024-02-16T15:01:56;8.50;;;4.70;;